Pagina principale
METAR-TAF:

METAR-TAF

Aeroporti :

Aeroporto di Palermo-Punta Raisi

Palermo, Italia

latitudine: 38-11N, longitudine: 013-06E, altezza: 21 m

Osservazione

Il bollettino è stato emesso 32 minuti fa, alle 17:20 UTC
Vento 8 kt da sud/sud-ovest
Temperature 13°C
Umidità 67%
Pressione 1022 hPa
Visibilità 10 km o più
Nubi sparse ad un'altezza di 4500 ft

METAR: LICJ 201720Z 20008KT 9999 SCT045 13/07 Q1022

Ora: 18:52 (17:52 UTC)

Previsione

Il bollettino è stato emesso 52 minuti fa, alle 17:00 UTC
Previsione valida dal 20 alle 18 UTC al 21 alle 18 UTC
Vento 14 kt da ovest/sud-ovest
Visibilità 10 km o più
Nubi sparse ad un'altezza di 5000 ft
Temporaneamente
dal 21 alle 03 UTC al 21 alle 12 UTC
pioggia

TAF: LICJ 201700Z 2018/2118 24014KT 9999 SCT050 TEMPO 2103/2112 RA

Osservazioni e previsioni meteorologiche di più di 4000 aeroporti (messaggi METAR e TAF).

Le stazioni disponibili sono rappresentate dai dischi gialli e rossi sulla carta.

Puntare il mouse per vedere il nome della stazione.

Clicca sopra per visualizzare le osservazioni e previsioni meteorologiche.

Per cambiare la mappa : fare clic sui pulsanti verdi con una croce nera per ingrandire, il pulsante verde con un trattino per diminuire, o sulla freccia verde per le mappe adiacenti.


METAR-TAF: